sensor_id;sensor_type;location;lat;lon;timestamp;pressure;altitude;pressure_sealevel;temperature;humidity
29169;BME280;16219;42.864;23.360;2022-11-10T00:00:24;96546.91;;;6.58;100.00
29169;BME280;16219;42.864;23.360;2022-11-10T00:03:10;96540.13;;;6.51;100.00
29169;BME280;16219;42.864;23.360;2022-11-10T00:05:56;96545.38;;;6.46;100.00
29169;BME280;16219;42.864;23.360;2022-11-10T00:08:41;96540.16;;;6.26;100.00
29169;BME280;16219;42.864;23.360;2022-11-10T00:11:27;96542.75;;;6.41;100.00
29169;BME280;16219;42.864;23.360;2022-11-10T00:14:14;96542.25;;;6.34;100.00
29169;BME280;16219;42.864;23.360;2022-11-10T00:17:17;96534.63;;;6.48;100.00
29169;BME280;16219;42.864;23.360;2022-11-10T00:20:04;96535.41;;;6.48;100.00
29169;BME280;16219;42.864;23.360;2022-11-10T00:22:50;96527.81;;;6.42;100.00
29169;BME280;16219;42.864;23.360;2022-11-10T00:25:36;96527.28;;;6.55;100.00
29169;BME280;16219;42.864;23.360;2022-11-10T00:28:23;96528.00;;;6.66;100.00
29169;BME280;16219;42.864;23.360;2022-11-10T00:31:11;96521.72;;;6.72;100.00
29169;BME280;16219;42.864;23.360;2022-11-10T00:33:56;96526.41;;;6.75;100.00
29169;BME280;16219;42.864;23.360;2022-11-10T00:36:43;96523.31;;;6.68;100.00
29169;BME280;16219;42.864;23.360;2022-11-10T00:39:30;96516.97;;;6.74;100.00
29169;BME280;16219;42.864;23.360;2022-11-10T00:42:16;96524.84;;;6.74;100.00
29169;BME280;16219;42.864;23.360;2022-11-10T00:45:02;96522.53;;;6.67;100.00
29169;BME280;16219;42.864;23.360;2022-11-10T00:47:49;96519.66;;;6.64;100.00
29169;BME280;16219;42.864;23.360;2022-11-10T00:50:34;96521.22;;;6.65;100.00
29169;BME280;16219;42.864;23.360;2022-11-10T00:53:20;96515.44;;;6.68;100.00
29169;BME280;16219;42.864;23.360;2022-11-10T00:56:06;96508.59;;;6.72;100.00
29169;BME280;16219;42.864;23.360;2022-11-10T00:58:51;96510.97;;;6.68;100.00
29169;BME280;16219;42.864;23.360;2022-11-10T01:01:37;96508.59;;;6.72;100.00
29169;BME280;16219;42.864;23.360;2022-11-10T01:04:28;96503.34;;;6.77;100.00
29169;BME280;16219;42.864;23.360;2022-11-10T01:07:17;96509.34;;;6.83;100.00
29169;BME280;16219;42.864;23.360;2022-11-10T01:10:03;96509.09;;;6.84;100.00
29169;BME280;16219;42.864;23.360;2022-11-10T01:12:49;96487.34;;;6.79;100.00
29169;BME280;16219;42.864;23.360;2022-11-10T01:15:37;96501.47;;;6.93;100.00
29169;BME280;16219;42.864;23.360;2022-11-10T01:18:23;96507.72;;;7.02;100.00
29169;BME280;16219;42.864;23.360;2022-11-10T01:21:10;96506.16;;;7.01;100.00
29169;BME280;16219;42.864;23.360;2022-11-10T01:23:56;96507.47;;;6.93;100.00
29169;BME280;16219;42.864;23.360;2022-11-10T01:26:41;96503.59;;;6.81;100.00
29169;BME280;16219;42.864;23.360;2022-11-10T01:29:27;96502.81;;;6.75;100.00
29169;BME280;16219;42.864;23.360;2022-11-10T01:32:13;96497.34;;;6.71;100.00
29169;BME280;16219;42.864;23.360;2022-11-10T01:34:59;96490.03;;;6.63;100.00
29169;BME280;16219;42.864;23.360;2022-11-10T01:37:46;96497.09;;;6.63;100.00
29169;BME280;16219;42.864;23.360;2022-11-10T01:40:32;96494.72;;;6.61;100.00
29169;BME280;16219;42.864;23.360;2022-11-10T01:43:17;96492.41;;;6.55;100.00
29169;BME280;16219;42.864;23.360;2022-11-10T01:46:04;96497.88;;;6.58;100.00
29169;BME280;16219;42.864;23.360;2022-11-10T01:48:53;96493.44;;;6.59;100.00
29169;BME280;16219;42.864;23.360;2022-11-10T01:51:45;96491.34;;;6.61;100.00
29169;BME280;16219;42.864;23.360;2022-11-10T01:54:43;96492.13;;;6.56;100.00
29169;BME280;16219;42.864;23.360;2022-11-10T01:57:31;96495.03;;;6.55;100.00
29169;BME280;16219;42.864;23.360;2022-11-10T02:00:17;96493.47;;;6.48;100.00
29169;BME280;16219;42.864;23.360;2022-11-10T02:03:08;96496.38;;;6.42;100.00
29169;BME280;16219;42.864;23.360;2022-11-10T02:05:56;96493.75;;;6.37;100.00
29169;BME280;16219;42.864;23.360;2022-11-10T02:08:43;96492.16;;;6.46;100.00
29169;BME280;16219;42.864;23.360;2022-11-10T02:11:31;96488.22;;;6.48;100.00
29169;BME280;16219;42.864;23.360;2022-11-10T02:14:17;96498.44;;;6.50;100.00
29169;BME280;16219;42.864;23.360;2022-11-10T02:17:03;96500.03;;;6.51;100.00
29169;BME280;16219;42.864;23.360;2022-11-10T02:19:50;96500.81;;;6.51;100.00
29169;BME280;16219;42.864;23.360;2022-11-10T02:22:37;96500.25;;;6.49;100.00
29169;BME280;16219;42.864;23.360;2022-11-10T02:25:31;96494.00;;;6.40;100.00
29169;BME280;16219;42.864;23.360;2022-11-10T02:28:17;96506.56;;;6.48;100.00
29169;BME280;16219;42.864;23.360;2022-11-10T02:31:04;96506.03;;;6.51;100.00
29169;BME280;16219;42.864;23.360;2022-11-10T02:33:51;96514.41;;;6.54;100.00
29169;BME280;16219;42.864;23.360;2022-11-10T02:36:36;96512.84;;;6.53;100.00
29169;BME280;16219;42.864;23.360;2022-11-10T02:39:24;96509.16;;;6.54;100.00
29169;BME280;16219;42.864;23.360;2022-11-10T02:42:10;96509.97;;;6.49;100.00
29169;BME280;16219;42.864;23.360;2022-11-10T02:44:56;96507.38;;;6.44;100.00
29169;BME280;16219;42.864;23.360;2022-11-10T02:47:42;96511.31;;;6.46;100.00
29169;BME280;16219;42.864;23.360;2022-11-10T02:50:27;96512.34;;;6.50;100.00
29169;BME280;16219;42.864;23.360;2022-11-10T02:53:13;96511.53;;;6.55;100.00
29169;BME280;16219;42.864;23.360;2022-11-10T02:56:00;96507.88;;;6.56;100.00
29169;BME280;16219;42.864;23.360;2022-11-10T02:58:46;96517.56;;;6.56;100.00
29169;BME280;16219;42.864;23.360;2022-11-10T03:01:32;96512.06;;;6.52;100.00
29169;BME280;16219;42.864;23.360;2022-11-10T03:04:18;96516.00;;;6.55;100.00
29169;BME280;16219;42.864;23.360;2022-11-10T03:07:04;96519.66;;;6.54;100.00
29169;BME280;16219;42.864;23.360;2022-11-10T03:09:49;96517.56;;;6.45;100.00
29169;BME280;16219;42.864;23.360;2022-11-10T03:12:36;96523.59;;;6.56;100.00
29169;BME280;16219;42.864;23.360;2022-11-10T03:15:23;96510.75;;;6.49;100.00
29169;BME280;16219;42.864;23.360;2022-11-10T03:18:09;96513.88;;;6.57;100.00
29169;BME280;16219;42.864;23.360;2022-11-10T03:20:54;96525.41;;;6.61;100.00
29169;BME280;16219;42.864;23.360;2022-11-10T03:23:40;96524.34;;;6.67;100.00
29169;BME280;16219;42.864;23.360;2022-11-10T03:26:26;96523.31;;;6.63;100.00
29169;BME280;16219;42.864;23.360;2022-11-10T03:29:13;96527.50;;;6.64;100.00
29169;BME280;16219;42.864;23.360;2022-11-10T03:31:59;96528.06;;;6.50;100.00
29169;BME280;16219;42.864;23.360;2022-11-10T03:34:44;96532.78;;;6.48;100.00
29169;BME280;16219;42.864;23.360;2022-11-10T03:37:30;96530.44;;;6.42;100.00
29169;BME280;16219;42.864;23.360;2022-11-10T03:40:16;96536.47;;;6.37;100.00
29169;BME280;16219;42.864;23.360;2022-11-10T03:43:02;96529.66;;;6.36;100.00
29169;BME280;16219;42.864;23.360;2022-11-10T03:45:49;96532.28;;;6.31;100.00
29169;BME280;16219;42.864;23.360;2022-11-10T03:48:34;96532.81;;;6.33;100.00
29169;BME280;16219;42.864;23.360;2022-11-10T03:51:20;96532.81;;;6.38;100.00
29169;BME280;16219;42.864;23.360;2022-11-10T03:54:06;96536.47;;;6.47;100.00
29169;BME280;16219;42.864;23.360;2022-11-10T03:56:53;96533.56;;;6.44;100.00
29169;BME280;16219;42.864;23.360;2022-11-10T03:59:39;96543.56;;;6.42;100.00
29169;BME280;16219;42.864;23.360;2022-11-10T04:02:26;96538.06;;;6.38;100.00
29169;BME280;16219;42.864;23.360;2022-11-10T04:05:12;96532.25;;;6.41;100.00
29169;BME280;16219;42.864;23.360;2022-11-10T04:08:16;96537.50;;;6.46;100.00
29169;BME280;16219;42.864;23.360;2022-11-10T04:11:20;96527.56;;;6.38;100.00
29169;BME280;16219;42.864;23.360;2022-11-10T04:14:20;96540.63;;;6.54;100.00
29169;BME280;16219;42.864;23.360;2022-11-10T04:17:23;96541.13;;;6.61;100.00
29169;BME280;16219;42.864;23.360;2022-11-10T04:20:11;96534.84;;;6.62;100.00
29169;BME280;16219;42.864;23.360;2022-11-10T04:22:56;96528.56;;;6.63;100.00
29169;BME280;16219;42.864;23.360;2022-11-10T04:26:02;96545.31;;;6.72;100.00
29169;BME280;16219;42.864;23.360;2022-11-10T04:29:06;96547.91;;;6.82;100.00
29169;BME280;16219;42.864;23.360;2022-11-10T04:31:53;96536.38;;;6.78;100.00
29169;BME280;16219;42.864;23.360;2022-11-10T04:34:38;96546.34;;;6.81;100.00
29169;BME280;16219;42.864;23.360;2022-11-10T04:37:26;96539.22;;;6.87;100.00
29169;BME280;16219;42.864;23.360;2022-11-10T04:40:11;96545.25;;;6.87;100.00
29169;BME280;16219;42.864;23.360;2022-11-10T04:42:57;96547.38;;;6.85;100.00
29169;BME280;16219;42.864;23.360;2022-11-10T04:45:42;96545.00;;;6.84;100.00
29169;BME280;16219;42.864;23.360;2022-11-10T04:48:29;96538.47;;;6.81;100.00
29169;BME280;16219;42.864;23.360;2022-11-10T04:51:16;96553.16;;;6.82;100.00
29169;BME280;16219;42.864;23.360;2022-11-10T04:54:04;96545.81;;;6.84;100.00
29169;BME280;16219;42.864;23.360;2022-11-10T04:56:50;96545.56;;;6.81;100.00
29169;BME280;16219;42.864;23.360;2022-11-10T04:59:36;96551.84;;;6.74;100.00
29169;BME280;16219;42.864;23.360;2022-11-10T05:02:22;96548.44;;;6.74;100.00
29169;BME280;16219;42.864;23.360;2022-11-10T05:05:08;96551.59;;;6.71;100.00
29169;BME280;16219;42.864;23.360;2022-11-10T05:07:54;96553.44;;;6.70;100.00
29169;BME280;16219;42.864;23.360;2022-11-10T05:10:42;96553.44;;;6.70;100.00
29169;BME280;16219;42.864;23.360;2022-11-10T05:13:27;96557.66;;;6.71;100.00
29169;BME280;16219;42.864;23.360;2022-11-10T05:16:13;96568.91;;;6.72;100.00
29169;BME280;16219;42.864;23.360;2022-11-10T05:18:59;96565.25;;;6.73;100.00
29169;BME280;16219;42.864;23.360;2022-11-10T05:21:45;96567.59;;;6.74;100.00
29169;BME280;16219;42.864;23.360;2022-11-10T05:24:30;96566.28;;;6.77;100.00
29169;BME280;16219;42.864;23.360;2022-11-10T05:27:17;96561.81;;;6.78;100.00
29169;BME280;16219;42.864;23.360;2022-11-10T05:30:04;96549.22;;;6.74;100.00
29169;BME280;16219;42.864;23.360;2022-11-10T05:32:49;96568.88;;;6.82;100.00
29169;BME280;16219;42.864;23.360;2022-11-10T05:35:35;96570.44;;;6.83;100.00
29169;BME280;16219;42.864;23.360;2022-11-10T05:38:22;96572.56;;;6.81;100.00
29169;BME280;16219;42.864;23.360;2022-11-10T05:41:08;96572.81;;;6.80;100.00
29169;BME280;16219;42.864;23.360;2022-11-10T05:43:58;96577.28;;;6.84;100.00
29169;BME280;16219;42.864;23.360;2022-11-10T05:46:43;96574.66;;;6.84;100.00
29169;BME280;16219;42.864;23.360;2022-11-10T05:49:29;96583.03;;;6.86;100.00
29169;BME280;16219;42.864;23.360;2022-11-10T05:52:15;96580.66;;;6.90;100.00
29169;BME280;16219;42.864;23.360;2022-11-10T05:55:00;96581.44;;;6.90;100.00
29169;BME280;16219;42.864;23.360;2022-11-10T05:57:47;96581.97;;;6.92;100.00
29169;BME280;16219;42.864;23.360;2022-11-10T06:00:35;96582.78;;;6.93;100.00
29169;BME280;16219;42.864;23.360;2022-11-10T06:03:21;96592.72;;;7.01;100.00
29169;BME280;16219;42.864;23.360;2022-11-10T06:06:07;96599.00;;;6.95;100.00
29169;BME280;16219;42.864;23.360;2022-11-10T06:08:52;96590.88;;;6.91;100.00
29169;BME280;16219;42.864;23.360;2022-11-10T06:11:40;96604.25;;;7.05;100.00
29169;BME280;16219;42.864;23.360;2022-11-10T06:14:26;96606.06;;;6.99;100.00
29169;BME280;16219;42.864;23.360;2022-11-10T06:17:14;96619.75;;;6.91;100.00
29169;BME280;16219;42.864;23.360;2022-11-10T06:20:00;96613.44;;;6.97;100.00
29169;BME280;16219;42.864;23.360;2022-11-10T06:22:56;96611.09;;;6.91;100.00
29169;BME280;16219;42.864;23.360;2022-11-10T06:25:43;96621.31;;;6.97;100.00
29169;BME280;16219;42.864;23.360;2022-11-10T06:28:29;96622.88;;;6.98;100.00
29169;BME280;16219;42.864;23.360;2022-11-10T06:31:15;96629.72;;;6.94;100.00
29169;BME280;16219;42.864;23.360;2022-11-10T06:34:03;96628.63;;;7.00;100.00
29169;BME280;16219;42.864;23.360;2022-11-10T06:36:50;96627.28;;;7.13;100.00
29169;BME280;16219;42.864;23.360;2022-11-10T06:39:36;96629.13;;;7.23;100.00
29169;BME280;16219;42.864;23.360;2022-11-10T06:42:22;96632.78;;;7.27;100.00
29169;BME280;16219;42.864;23.360;2022-11-10T06:45:08;96640.69;;;7.12;100.00
29169;BME280;16219;42.864;23.360;2022-11-10T06:48:02;96641.72;;;7.16;100.00
29169;BME280;16219;42.864;23.360;2022-11-10T06:50:49;96645.13;;;7.16;100.00
29169;BME280;16219;42.864;23.360;2022-11-10T06:53:35;96636.41;;;7.36;100.00
29169;BME280;16219;42.864;23.360;2022-11-10T06:56:21;96641.63;;;7.46;100.00
29169;BME280;16219;42.864;23.360;2022-11-10T06:59:07;96644.47;;;7.55;100.00
29169;BME280;16219;42.864;23.360;2022-11-10T07:01:54;96642.66;;;7.50;100.00
29169;BME280;16219;42.864;23.360;2022-11-10T07:04:41;96646.84;;;7.51;100.00
29169;BME280;16219;42.864;23.360;2022-11-10T07:07:29;96641.59;;;7.57;100.00
29169;BME280;16219;42.864;23.360;2022-11-10T07:10:15;96643.41;;;7.61;100.00
29169;BME280;16219;42.864;23.360;2022-11-10T07:13:03;96649.94;;;7.69;100.00
29169;BME280;16219;42.864;23.360;2022-11-10T07:15:49;96646.72;;;7.77;100.00
29169;BME280;16219;42.864;23.360;2022-11-10T07:18:35;96654.03;;;7.85;100.00
29169;BME280;16219;42.864;23.360;2022-11-10T07:21:21;96650.88;;;7.88;100.00
29169;BME280;16219;42.864;23.360;2022-11-10T07:24:10;96653.44;;;8.04;100.00
29169;BME280;16219;42.864;23.360;2022-11-10T07:26:56;96647.56;;;8.17;100.00
29169;BME280;16219;42.864;23.360;2022-11-10T07:29:41;96655.38;;;8.27;100.00
29169;BME280;16219;42.864;23.360;2022-11-10T07:32:27;96652.72;;;8.37;100.00
29169;BME280;16219;42.864;23.360;2022-11-10T07:35:13;96661.59;;;8.36;100.00
29169;BME280;16219;42.864;23.360;2022-11-10T07:38:01;96653.13;;;8.49;100.00
29169;BME280;16219;42.864;23.360;2022-11-10T07:40:54;96661.50;;;8.57;100.00
29169;BME280;16219;42.864;23.360;2022-11-10T07:43:41;96646.97;;;8.64;100.00
29169;BME280;16219;42.864;23.360;2022-11-10T07:46:28;96655.56;;;8.75;100.00
29169;BME280;16219;42.864;23.360;2022-11-10T07:49:14;96648.53;;;8.94;100.00
29169;BME280;16219;42.864;23.360;2022-11-10T07:52:00;96650.50;;;9.08;100.00
29169;BME280;16219;42.864;23.360;2022-11-10T07:54:46;96661.78;;;9.13;100.00
29169;BME280;16219;42.864;23.360;2022-11-10T07:57:34;96654.59;;;9.19;100.00
29169;BME280;16219;42.864;23.360;2022-11-10T08:00:20;96661.84;;;9.32;100.00
29169;BME280;16219;42.864;23.360;2022-11-10T08:03:10;96653.97;;;9.51;100.00
29169;BME280;16219;42.864;23.360;2022-11-10T08:05:56;96652.00;;;9.62;100.00
29169;BME280;16219;42.864;23.360;2022-11-10T08:08:42;96652.38;;;9.74;100.00
29169;BME280;16219;42.864;23.360;2022-11-10T08:11:27;96641.78;;;9.79;100.00
29169;BME280;16219;42.864;23.360;2022-11-10T08:14:14;96641.50;;;9.99;100.00
29169;BME280;16219;42.864;23.360;2022-11-10T08:17:00;96643.00;;;10.06;100.00
29169;BME280;16219;42.864;23.360;2022-11-10T08:19:50;96648.13;;;9.97;100.00
29169;BME280;16219;42.864;23.360;2022-11-10T08:22:36;96650.69;;;10.02;100.00
29169;BME280;16219;42.864;23.360;2022-11-10T08:25:22;96643.56;;;10.21;100.00
29169;BME280;16219;42.864;23.360;2022-11-10T08:28:11;96650.22;;;10.38;100.00
29169;BME280;16219;42.864;23.360;2022-11-10T08:31:01;96656.19;;;10.43;100.00
29169;BME280;16219;42.864;23.360;2022-11-10T08:33:47;96654.97;;;10.55;100.00
29169;BME280;16219;42.864;23.360;2022-11-10T08:36:34;96651.00;;;10.71;100.00
29169;BME280;16219;42.864;23.360;2022-11-10T08:39:21;96653.34;;;10.72;100.00
29169;BME280;16219;42.864;23.360;2022-11-10T08:42:07;96643.41;;;10.83;100.00
29169;BME280;16219;42.864;23.360;2022-11-10T08:44:55;96648.31;;;11.04;100.00
29169;BME280;16219;42.864;23.360;2022-11-10T08:47:43;96652.25;;;11.20;100.00
29169;BME280;16219;42.864;23.360;2022-11-10T08:50:29;96650.59;;;11.24;100.00
29169;BME280;16219;42.864;23.360;2022-11-10T08:53:17;96651.88;;;11.40;100.00
29169;BME280;16219;42.864;23.360;2022-11-10T08:56:05;96641.97;;;11.46;100.00
29169;BME280;16219;42.864;23.360;2022-11-10T08:58:54;96648.84;;;11.47;100.00
29169;BME280;16219;42.864;23.360;2022-11-10T09:01:40;96651.25;;;11.71;100.00
29169;BME280;16219;42.864;23.360;2022-11-10T09:04:27;96651.75;;;11.87;100.00
29169;BME280;16219;42.864;23.360;2022-11-10T09:07:13;96653.59;;;12.00;100.00
29169;BME280;16219;42.864;23.360;2022-11-10T09:09:59;96654.06;;;12.02;100.00
29169;BME280;16219;42.864;23.360;2022-11-10T09:12:45;96651.03;;;12.09;100.00
29169;BME280;16219;42.864;23.360;2022-11-10T09:15:33;96649.72;;;12.20;100.00
29169;BME280;16219;42.864;23.360;2022-11-10T09:18:20;96663.94;;;12.24;100.00
29169;BME280;16219;42.864;23.360;2022-11-10T09:21:11;96654.78;;;12.30;100.00
29169;BME280;16219;42.864;23.360;2022-11-10T09:23:57;96656.72;;;12.38;100.00
29169;BME280;16219;42.864;23.360;2022-11-10T09:26:43;96653.81;;;12.48;100.00
29169;BME280;16219;42.864;23.360;2022-11-10T09:29:30;96652.81;;;12.58;100.00
29169;BME280;16219;42.864;23.360;2022-11-10T09:32:16;96654.38;;;12.59;100.00
29169;BME280;16219;42.864;23.360;2022-11-10T09:35:03;96654.19;;;12.56;100.00
29169;BME280;16219;42.864;23.360;2022-11-10T09:37:51;96654.44;;;12.68;100.00
29169;BME280;16219;42.864;23.360;2022-11-10T09:40:52;96648.03;;;12.69;100.00
29169;BME280;16219;42.864;23.360;2022-11-10T09:43:42;96646.13;;;12.61;100.00
29169;BME280;16219;42.864;23.360;2022-11-10T09:46:34;96639.28;;;12.60;100.00
29169;BME280;16219;42.864;23.360;2022-11-10T09:49:31;96642.34;;;12.75;100.00
29169;BME280;16219;42.864;23.360;2022-11-10T09:52:20;96634.66;;;12.74;100.00
29169;BME280;16219;42.864;23.360;2022-11-10T09:55:21;96638.31;;;12.87;100.00
29169;BME280;16219;42.864;23.360;2022-11-10T09:58:12;96634.16;;;12.94;100.00
29169;BME280;16219;42.864;23.360;2022-11-10T10:01:05;96630.00;;;13.02;100.00
29169;BME280;16219;42.864;23.360;2022-11-10T10:04:02;96627.03;;;13.04;100.00
29169;BME280;16219;42.864;23.360;2022-11-10T10:06:56;96630.69;;;13.16;100.00
29169;BME280;16219;42.864;23.360;2022-11-10T10:09:50;96631.47;;;13.17;100.00
29169;BME280;16219;42.864;23.360;2022-11-10T10:12:44;96631.59;;;13.12;100.00
29169;BME280;16219;42.864;23.360;2022-11-10T10:15:41;96619.31;;;13.16;100.00
29169;BME280;16219;42.864;23.360;2022-11-10T10:18:33;96622.03;;;13.33;100.00
29169;BME280;16219;42.864;23.360;2022-11-10T10:21:37;96620.06;;;13.47;100.00
29169;BME280;16219;42.864;23.360;2022-11-10T10:24:25;96622.75;;;13.65;100.00
29169;BME280;16219;42.864;23.360;2022-11-10T10:27:17;96620.13;;;13.65;100.00
29169;BME280;16219;42.864;23.360;2022-11-10T10:30:11;96619.19;;;13.78;100.00
29169;BME280;16219;42.864;23.360;2022-11-10T10:33:08;96617.34;;;13.87;100.00
29169;BME280;16219;42.864;23.360;2022-11-10T10:36:01;96623.56;;;13.91;100.00
29169;BME280;16219;42.864;23.360;2022-11-10T10:38:50;96613.75;;;14.00;100.00
29169;BME280;16219;42.864;23.360;2022-11-10T10:41:37;96617.06;;;14.15;100.00
29169;BME280;16219;42.864;23.360;2022-11-10T10:44:23;96616.72;;;14.25;100.00
29169;BME280;16219;42.864;23.360;2022-11-10T10:47:10;96613.75;;;14.26;100.00
29169;BME280;16219;42.864;23.360;2022-11-10T10:50:15;96614.66;;;14.39;100.00
29169;BME280;16219;42.864;23.360;2022-11-10T10:53:11;96604.38;;;14.46;100.00
29169;BME280;16219;42.864;23.360;2022-11-10T10:56:00;96605.31;;;14.42;100.00
29169;BME280;16219;42.864;23.360;2022-11-10T10:58:51;96594.84;;;14.45;100.00
29169;BME280;16219;42.864;23.360;2022-11-10T11:01:39;96596.56;;;14.41;100.00
29169;BME280;16219;42.864;23.360;2022-11-10T11:04:32;96587.06;;;14.49;100.00
29169;BME280;16219;42.864;23.360;2022-11-10T11:07:20;96593.59;;;14.52;100.00
29169;BME280;16219;42.864;23.360;2022-11-10T11:10:17;96592.97;;;14.55;100.00
29169;BME280;16219;42.864;23.360;2022-11-10T11:13:14;96582.81;;;14.57;100.00
29169;BME280;16219;42.864;23.360;2022-11-10T11:16:02;96589.97;;;14.65;100.00
29169;BME280;16219;42.864;23.360;2022-11-10T11:18:49;96587.63;;;14.72;100.00
29169;BME280;16219;42.864;23.360;2022-11-10T11:21:43;96582.63;;;14.79;100.00
29169;BME280;16219;42.864;23.360;2022-11-10T11:24:38;96581.16;;;14.90;100.00
29169;BME280;16219;42.864;23.360;2022-11-10T11:27:31;96575.41;;;14.88;100.00
29169;BME280;16219;42.864;23.360;2022-11-10T11:30:21;96571.94;;;14.96;100.00
29169;BME280;16219;42.864;23.360;2022-11-10T11:33:17;96569.22;;;15.05;100.00
29169;BME280;16219;42.864;23.360;2022-11-10T11:36:15;96566.69;;;15.17;100.00
29169;BME280;16219;42.864;23.360;2022-11-10T11:39:15;96562.47;;;15.08;100.00
29169;BME280;16219;42.864;23.360;2022-11-10T11:42:16;96563.91;;;15.05;100.00
29169;BME280;16219;42.864;23.360;2022-11-10T11:45:15;96571.84;;;15.14;100.00
29169;BME280;16219;42.864;23.360;2022-11-10T11:48:14;96555.72;;;15.19;100.00
29169;BME280;16219;42.864;23.360;2022-11-10T11:51:11;96558.53;;;15.22;100.00
29169;BME280;16219;42.864;23.360;2022-11-10T11:54:14;96554.91;;;15.27;100.00
29169;BME280;16219;42.864;23.360;2022-11-10T11:57:13;96550.41;;;15.19;100.00
29169;BME280;16219;42.864;23.360;2022-11-10T12:00:07;96556.81;;;15.18;100.00
29169;BME280;16219;42.864;23.360;2022-11-10T12:06:35;96559.44;;;15.27;100.00
29169;BME280;16219;42.864;23.360;2022-11-10T12:09:34;96550.50;;;15.31;100.00
29169;BME280;16219;42.864;23.360;2022-11-10T12:12:51;96549.91;;;15.25;100.00
29169;BME280;16219;42.864;23.360;2022-11-10T12:15:47;96555.34;;;15.29;100.00
29169;BME280;16219;42.864;23.360;2022-11-10T12:18:42;96555.47;;;15.33;100.00
29169;BME280;16219;42.864;23.360;2022-11-10T12:21:37;96559.56;;;15.30;100.00
29169;BME280;16219;42.864;23.360;2022-11-10T12:24:47;96560.50;;;15.34;100.00
29169;BME280;16219;42.864;23.360;2022-11-10T12:27:37;96532.56;;;15.19;100.00
29169;BME280;16219;42.864;23.360;2022-11-10T12:30:24;96566.97;;;15.45;100.00
29169;BME280;16219;42.864;23.360;2022-11-10T12:33:15;96560.44;;;15.43;100.00
29169;BME280;16219;42.864;23.360;2022-11-10T12:36:07;96557.97;;;15.38;100.00
29169;BME280;16219;42.864;23.360;2022-11-10T12:38:59;96556.09;;;15.38;100.00
29169;BME280;16219;42.864;23.360;2022-11-10T12:41:50;96559.97;;;15.41;100.00
29169;BME280;16219;42.864;23.360;2022-11-10T12:44:42;96558.28;;;15.36;100.00
29169;BME280;16219;42.864;23.360;2022-11-10T12:47:37;96567.81;;;15.37;100.00
29169;BME280;16219;42.864;23.360;2022-11-10T12:50:35;96550.63;;;15.35;100.00
29169;BME280;16219;42.864;23.360;2022-11-10T12:53:25;96566.69;;;15.47;100.00
29169;BME280;16219;42.864;23.360;2022-11-10T12:56:16;96556.88;;;15.39;100.00
29169;BME280;16219;42.864;23.360;2022-11-10T12:59:27;96568.28;;;15.39;100.00
29169;BME280;16219;42.864;23.360;2022-11-10T13:02:23;96560.50;;;15.34;100.00
29169;BME280;16219;42.864;23.360;2022-11-10T13:05:23;96572.22;;;15.33;100.00
29169;BME280;16219;42.864;23.360;2022-11-10T13:11:25;96566.78;;;15.30;100.00
29169;BME280;16219;42.864;23.360;2022-11-10T13:14:24;96569.09;;;15.31;100.00
29169;BME280;16219;42.864;23.360;2022-11-10T13:20:51;96573.94;;;15.29;100.00
29169;BME280;16219;42.864;23.360;2022-11-10T13:26:56;96567.81;;;15.08;100.00
29169;BME280;16219;42.864;23.360;2022-11-10T13:30:05;96575.47;;;15.09;100.00
29169;BME280;16219;42.864;23.360;2022-11-10T13:32:52;96576.09;;;15.06;100.00
29169;BME280;16219;42.864;23.360;2022-11-10T13:35:51;96576.09;;;15.06;100.00
29169;BME280;16219;42.864;23.360;2022-11-10T13:38:38;96583.47;;;15.00;100.00
29169;BME280;16219;42.864;23.360;2022-11-10T13:41:25;96578.50;;;14.90;100.00
29169;BME280;16219;42.864;23.360;2022-11-10T13:44:21;96582.88;;;14.86;100.00
29169;BME280;16219;42.864;23.360;2022-11-10T13:50:34;96585.88;;;14.85;100.00
29169;BME280;16219;42.864;23.360;2022-11-10T13:53:34;96577.94;;;14.76;100.00
29169;BME280;16219;42.864;23.360;2022-11-10T13:56:38;96583.09;;;14.72;100.00
29169;BME280;16219;42.864;23.360;2022-11-10T13:59:32;96595.78;;;14.67;100.00
29169;BME280;16219;42.864;23.360;2022-11-10T14:02:45;96594.06;;;14.45;100.00
29169;BME280;16219;42.864;23.360;2022-11-10T14:06:05;96587.69;;;14.37;100.00
29169;BME280;16219;42.864;23.360;2022-11-10T14:08:57;96595.19;;;14.18;100.00
29169;BME280;16219;42.864;23.360;2022-11-10T14:11:50;96595.81;;;13.97;100.00
29169;BME280;16219;42.864;23.360;2022-11-10T14:14:46;96607.03;;;13.77;100.00
29169;BME280;16219;42.864;23.360;2022-11-10T14:17:38;96603.44;;;13.73;100.00
29169;BME280;16219;42.864;23.360;2022-11-10T14:20:33;96602.91;;;13.54;100.00
29169;BME280;16219;42.864;23.360;2022-11-10T14:23:24;96597.44;;;13.41;100.00
29169;BME280;16219;42.864;23.360;2022-11-10T14:26:16;96600.22;;;13.36;100.00
29169;BME280;16219;42.864;23.360;2022-11-10T14:29:28;96602.19;;;13.22;100.00
29169;BME280;16219;42.864;23.360;2022-11-10T14:32:17;96599.19;;;13.15;100.00
29169;BME280;16219;42.864;23.360;2022-11-10T14:35:15;96602.47;;;13.12;100.00
29169;BME280;16219;42.864;23.360;2022-11-10T14:38:05;96605.25;;;13.07;100.00
29169;BME280;16219;42.864;23.360;2022-11-10T14:40:54;96613.34;;;13.01;100.00
29169;BME280;16219;42.864;23.360;2022-11-10T14:43:40;96608.31;;;12.91;100.00
29169;BME280;16219;42.864;23.360;2022-11-10T14:46:26;96608.13;;;12.88;100.00
29169;BME280;16219;42.864;23.360;2022-11-10T14:49:12;96607.59;;;12.77;100.00
29169;BME280;16219;42.864;23.360;2022-11-10T14:51:58;96618.63;;;12.70;100.00
29169;BME280;16219;42.864;23.360;2022-11-10T14:54:46;96618.88;;;12.60;100.00
29169;BME280;16219;42.864;23.360;2022-11-10T14:57:32;96615.88;;;12.53;100.00